Time;durP1;ratioP1;P1;durP2;ratioP2;P2;SDS_P1;SDS_P2;PMS_P1;PMS_P2;Temp;Humidity;BMP_temperature;BMP_pressure;BME280_temperature;BME280_humidity;BME280_pressure;Samples;Min_cycle;Max_cycle;Signal;HPM_P1;HPM_P2
2023/09/09 05:20:21;;;;;;;;;;;;;;;;;;5044130;28;20095;-44
2023/09/09 05:22:47;;;;;;;;;;;;;;;;;;5051248;28;20029;-46
2023/09/09 05:25:13;;;;;;;;;;;;;;;;;;5051365;28;19912;-45
2023/09/09 05:27:39;;;;;;;;;;;;;;;;;;5050212;28;20283;-48
2023/09/09 05:30:05;;;;;;;;;;;;;;;;;;5049697;28;19939;-45
2023/09/09 05:32:31;;;;;;;;;;;;;;;;;;5050559;28;19912;-45
2023/09/09 05:34:56;;;;;;;;;;;;;;;;;;5051430;28;19956;-44
2023/09/09 05:37:23;;;;;;;;;;;;;;;;;;5051287;28;19905;-45
2023/09/09 05:39:48;;;;;;;;;;;;;;;;;;5051013;28;19944;-44
2023/09/09 05:42:14;;;;;;;;;;;;;;;;;;5051085;28;20299;-46
2023/09/09 05:44:40;;;;;;;;;;;;;;;;;;5050984;28;19909;-46
2023/09/09 05:47:08;;;;;;;;;;;;;;;;;;5049057;28;19908;-46
2023/09/09 05:49:33;;;;;;;;;;;;;;;;;;5051012;28;19963;-44
2023/09/09 05:51:59;;;;;;;;;;;;;;;;;;5050126;28;20315;-47
2023/09/09 05:54:25;;;;;;;;;;;;;;;;;;5051048;28;19955;-47
2023/09/09 05:56:51;;;;;;;;;;;;;;;;;;5050620;28;19909;-45
2023/09/09 05:59:17;;;;;;;;;;;;;;;;;;5051008;28;19952;-46
2023/09/09 06:01:43;;;;;;;;;;;;;;;;;;5050512;28;19948;-46
2023/09/09 06:04:09;;;;;;;;;;;;;;;;;;5050215;28;19977;-46
2023/09/09 06:06:35;;;;;;;;;;;;;;;;;;5050513;28;19916;-46
2023/09/09 06:09:01;;;;;;;;;;;;;;;;;;5050832;28;20295;-45
2023/09/09 06:11:26;;;;;;;;;;;;;;;;;;5048574;28;19990;-45
2023/09/09 06:13:52;;;;;;;;;;;;;;;;;;5048959;28;19916;-47
2023/09/09 06:16:18;;;;;;;;;;;;;;;;;;5048241;28;19994;-47
2023/09/09 06:18:44;;;;;;;;;;;;;;;;;;5050361;28;19909;-45
2023/09/09 06:21:10;;;;;;;;;;;;;;;;;;5050431;28;19905;-49
2023/09/09 06:23:36;;;;;;;;;;;;;;;;;;5050552;28;19950;-45
2023/09/09 06:26:02;;;;;;;;;;;;;;;;;;5050584;28;20500;-44
2023/09/09 06:28:28;;;;;;;;;;;;;;;;;;5050595;28;20375;-45
2023/09/09 06:30:54;;;;;;;;;;;;;;;;;;5040474;28;19917;-45
2023/09/09 06:33:20;;;;;;;;;;;;;;;;;;5029042;28;19921;-46
2023/09/09 06:35:46;;;;;;;;;;;;;;;;;;5040055;28;20015;-47
2023/09/09 06:38:12;;;;;;;;;;;;;;;;;;5050142;28;20015;-45
2023/09/09 06:40:38;;;;;;;;;;;;;;;;;;5028215;28;19913;-48
2023/09/09 06:43:04;;;;;;;;;;;;;;;;;;5030112;28;20380;-45
2023/09/09 06:45:29;;;;;;;;;;;;;;;;;;5030287;28;19958;-45
2023/09/09 06:47:55;;;;;;;;;;;;;;;;;;5012266;28;19972;-45
2023/09/09 06:50:21;;;;;;;;;;;;;;;;;;5029884;28;19913;-46
2023/09/09 06:52:47;;;;;;;;;;;;;;;;;;5029063;28;19917;-45
2023/09/09 06:55:13;;;;;;;;;;;;;;;;;;5029293;28;19910;-45
2023/09/09 06:57:39;;;;;;;;;;;;;;;;;;5029375;28;20395;-48
2023/09/09 07:00:05;;;;;;;;;;;;;;;;;;5029943;28;19910;-48
2023/09/09 07:02:31;;;;;;;;;;;;;;;;;;5027088;28;19913;-46
2023/09/09 07:04:57;;;;;;;;;;;;;;;;;;5029152;28;19948;-48
2023/09/09 07:07:23;;;;;;;;;;;;;;;;;;5028647;28;20171;-46
2023/09/09 07:09:48;;;;;;;;;;;;;;;;;;5028909;28;19909;-46
2023/09/09 07:12:14;;;;;;;;;;;;;;;;;;5028419;28;20398;-47
2023/09/09 07:14:40;;;;;;;;;;;;;;;;;;5030645;28;19909;-48
2023/09/09 07:17:06;;;;;;;;;;;;;;;;;;5032551;28;20337;-47
2023/09/09 07:19:32;;;;;;;;;;;;;;;;;;5032540;28;19963;-45
2023/09/09 07:21:58;;;;;;;;;;;;;;;;;;5031995;28;20407;-49
2023/09/09 07:24:24;;;;;;;;;;;;;;;;;;5032226;28;19943;-45
2023/09/09 07:26:50;;;;;;;;;;;;;;;;;;5032159;28;19913;-46
2023/09/09 07:29:15;;;;;;;;;;;;;;;;;;5032350;28;19956;-47
2023/09/09 07:31:41;;;;;;;;;;;;;;;;;;5031765;28;19979;-45
2023/09/09 07:34:07;;;;;;;;;;;;;;;;;;5032195;28;19920;-46
2023/09/09 07:36:33;;;;;;;;;;;;;;;;;;5026141;28;19976;-45
2023/09/09 07:38:59;;;;;;;;;;;;;;;;;;5020764;28;19920;-41
2023/09/09 07:41:25;;;;;;;;;;;;;;;;;;5030823;28;20000;-41
2023/09/09 07:43:51;;;;;;;;;;;;;;;;;;5029253;28;19975;-41
2023/09/09 07:46:17;;;;;;;;;;;;;;;;;;5032367;28;19920;-41
2023/09/09 07:48:43;;;;;;;;;;;;;;;;;;5031751;28;20462;-41
2023/09/09 07:51:09;;;;;;;;;;;;;;;;;;5032138;28;19909;-41
2023/09/09 07:53:34;;;;;;;;;;;;;;;;;;5031718;28;19939;-41
2023/09/09 07:56:00;;;;;;;;;;;;;;;;;;5032043;28;19909;-41
2023/09/09 07:58:26;;;;;;;;;;;;;;;;;;5031530;28;19920;-41
2023/09/09 08:00:52;;;;;;;;;;;;;;;;;;5030030;28;20464;-42
2023/09/09 08:03:18;;;;;;;;;;;;;;;;;;5031618;28;19913;-41
2023/09/09 08:05:44;;;;;;;;;;;;;;;;;;5031678;28;19952;-41
2023/09/09 08:08:10;;;;;;;;;;;;;;;;;;5031376;28;20003;-41
2023/09/09 08:10:36;;;;;;;;;;;;;;;;;;5031897;28;19909;-41
2023/09/09 08:13:02;;;;;;;;;;;;;;;;;;5031186;28;20294;-41
2023/09/09 08:15:28;;;;;;;;;;;;;;;;;;5031546;28;19939;-41
2023/09/09 08:17:53;;;;;;;;;;;;;;;;;;5031205;28;19920;-41
2023/09/09 08:20:19;;;;;;;;;;;;;;;;;;5031815;28;19963;-41
2023/09/09 08:22:45;;;;;;;;;;;;;;;;;;5046676;28;19924;-41
2023/09/09 08:25:14;;;;;;;;;;;;;;;;;;5050872;28;19936;-41
2023/09/09 08:27:40;;;;;;;;;;;;;;;;;;5050536;28;19909;-41
2023/09/09 08:30:06;;;;;;;;;;;;;;;;;;5051225;28;20007;-41
2023/09/09 08:32:33;;;;;;;;;;;;;;;;;;5050711;28;19924;-41
2023/09/09 08:34:59;;;;;;;;;;;;;;;;;;5050819;28;19951;-41
2023/09/09 08:37:25;;;;;;;;;;;;;;;;;;5050755;28;19960;-41
2023/09/09 08:39:51;;;;;;;;;;;;;;;;;;5050837;28;20338;-41
2023/09/09 08:42:17;;;;;;;;;;;;;;;;;;5050471;28;19917;-41
2023/09/09 08:44:42;;;;;;;;;;;;;;;;;;5050553;28;19912;-41
2023/09/09 08:47:09;;;;;;;;;;;;;;;;;;5050694;28;19961;-41
2023/09/09 08:49:35;;;;;;;;;;;;;;;;;;5050684;28;19909;-41
2023/09/09 08:52:00;;;;;;;;;;;;;;;;;;5050325;28;19919;-41
2023/09/09 08:54:26;;;;;;;;;;;;;;;;;;5050805;28;20006;-41
2023/09/09 08:56:52;;;;;;;;;;;;;;;;;;5050369;28;19912;-41
2023/09/09 08:59:18;;;;;;;;;;;;;;;;;;5050494;28;19916;-41
2023/09/09 09:01:44;;;;;;;;;;;;;;;;;;5050118;28;20358;-41
2023/09/09 09:04:10;;;;;;;;;;;;;;;;;;5050340;28;19909;-41
2023/09/09 09:06:36;;;;;;;;;;;;;;;;;;5050608;28;19963;-42
2023/09/09 09:09:02;;;;;;;;;;;;;;;;;;5050294;28;19963;-41
2023/09/09 09:11:28;;;;;;;;;;;;;;;;;;5049974;28;20342;-41
2023/09/09 09:13:55;;;;;;;;;;;;;;;;;;5050353;28;19977;-41
2023/09/09 09:16:21;;;;;;;;;;;;;;;;;;5050364;28;19908;-41
2023/09/09 09:18:47;;;;;;;;;;;;;;;;;;5050066;28;20371;-41
2023/09/09 09:21:12;;;;;;;;;;;;;;;;;;5049588;28;19920;-42
2023/09/09 09:23:38;;;;;;;;;;;;;;;;;;5049810;28;19963;-41
2023/09/09 09:26:04;;;;;;;;;;;;;;;;;;5050166;28;20062;-42
2023/09/09 09:28:30;;;;;;;;;;;;;;;;;;5049881;28;20229;-41
2023/09/09 09:30:56;;;;;;;;;;;;;;;;;;5049763;28;19905;-43
2023/09/09 09:33:22;;;;;;;;;;;;;;;;;;5049842;28;19912;-42
2023/09/09 09:35:48;;;;;;;;;;;;;;;;;;5050320;28;19909;-41
2023/09/09 09:38:14;;;;;;;;;;;;;;;;;;5049061;28;19913;-42
2023/09/09 09:40:40;;;;;;;;;;;;;;;;;;5049835;28;19908;-42
2023/09/09 09:43:06;;;;;;;;;;;;;;;;;;5049622;28;19913;-41
2023/09/09 09:45:32;;;;;;;;;;;;;;;;;;5049732;28;19955;-42
2023/09/09 09:47:57;;;;;;;;;;;;;;;;;;5049826;28;21316;-42
2023/09/09 09:50:28;;;;;;;;;;;;;;;;;;5049436;28;19923;-42
2023/09/09 09:52:54;;;;;;;;;;;;;;;;;;5049905;28;19917;-42
2023/09/09 09:55:20;;;;;;;;;;;;;;;;;;5049318;28;20004;-41
2023/09/09 09:57:46;;;;;;;;;;;;;;;;;;5049504;28;19920;-42
2023/09/09 10:00:12;;;;;;;;;;;;;;;;;;5048943;28;20149;-42
2023/09/09 10:02:37;;;;;;;;;;;;;;;;;;5049253;28;19912;-41
2023/09/09 10:05:04;;;;;;;;;;;;;;;;;;5049111;28;19916;-42
2023/09/09 10:07:30;;;;;;;;;;;;;;;;;;5049241;28;19966;-41
2023/09/09 10:09:56;;;;;;;;;;;;;;;;;;5048929;28;20469;-41
2023/09/09 10:12:21;;;;;;;;;;;;;;;;;;5049185;28;19917;-42
2023/09/09 10:14:48;;;;;;;;;;;;;;;;;;5049179;28;19908;-42
2023/09/09 10:17:14;;;;;;;;;;;;;;;;;;5046295;28;20382;-42
2023/09/09 10:19:40;;;;;;;;;;;;;;;;;;5047730;28;20009;-43
2023/09/09 10:22:06;;;;;;;;;;;;;;;;;;5046183;28;19925;-42
2023/09/09 10:24:32;;;;;;;;;;;;;;;;;;5028974;28;19909;-43
2023/09/09 10:26:58;;;;;;;;;;;;;;;;;;5029026;28;19905;-42
2023/09/09 10:29:24;;;;;;;;;;;;;;;;;;5028968;28;19913;-42
2023/09/09 10:31:50;;;;;;;;;;;;;;;;;;5044829;28;19917;-42
2023/09/09 10:34:16;;;;;;;;;;;;;;;;;;5048912;28;19948;-42
2023/09/09 10:36:42;;;;;;;;;;;;;;;;;;5030864;28;19916;-42
2023/09/09 10:39:07;;;;;;;;;;;;;;;;;;5049064;28;19915;-42
2023/09/09 10:41:33;;;;;;;;;;;;;;;;;;5035305;28;20318;-42
2023/09/09 10:43:59;;;;;;;;;;;;;;;;;;5029086;28;19964;-44
2023/09/09 10:46:25;;;;;;;;;;;;;;;;;;5029180;28;20383;-42
2023/09/09 10:48:51;;;;;;;;;;;;;;;;;;5029727;28;19945;-42
2023/09/09 10:51:18;;;;;;;;;;;;;;;;;;5042931;28;19958;-43
2023/09/09 10:53:43;;;;;;;;;;;;;;;;;;5052996;28;20294;-42
2023/09/09 10:56:09;;;;;;;;;;;;;;;;;;5053009;28;19980;-42
2023/09/09 10:58:35;;;;;;;;;;;;;;;;;;5052756;28;19982;-42
2023/09/09 11:01:01;;;;;;;;;;;;;;;;;;5026300;28;20188;-42
2023/09/09 11:03:27;;;;;;;;;;;;;;;;;;5032880;28;19909;-42
2023/09/09 11:05:53;;;;;;;;;;;;;;;;;;5032381;28;19917;-42
2023/09/09 11:08:19;;;;;;;;;;;;;;;;;;5032661;28;19909;-42
2023/09/09 11:10:45;;;;;;;;;;;;;;;;;;5037867;28;20062;-42
2023/09/09 11:13:11;;;;;;;;;;;;;;;;;;5052874;28;20302;-42
2023/09/09 11:15:36;;;;;;;;;;;;;;;;;;5052461;28;19909;-43
2023/09/09 11:18:03;;;;;;;;;;;;;;;;;;5040899;28;19948;-42
2023/09/09 11:20:29;;;;;;;;;;;;;;;;;;5031775;28;19916;-42
2023/09/09 11:22:55;;;;;;;;;;;;;;;;;;5033383;28;19921;-42
2023/09/09 11:25:21;;;;;;;;;;;;;;;;;;5030590;28;20391;-43
2023/09/09 11:27:47;;;;;;;;;;;;;;;;;;5031017;28;20392;-42
2023/09/09 11:30:13;;;;;;;;;;;;;;;;;;5030573;28;19909;-43
2023/09/09 11:32:39;;;;;;;;;;;;;;;;;;5047643;28;19916;-42
2023/09/09 11:35:07;;;;;;;;;;;;;;;;;;5028931;28;19920;-42
2023/09/09 11:37:33;;;;;;;;;;;;;;;;;;5028243;28;19917;-43
2023/09/09 11:39:58;;;;;;;;;;;;;;;;;;5030703;28;20430;-42
2023/09/09 11:42:24;;;;;;;;;;;;;;;;;;5032741;28;19967;-42
2023/09/09 11:44:50;;;;;;;;;;;;;;;;;;5029853;28;19966;-42
2023/09/09 11:47:16;;;;;;;;;;;;;;;;;;5030215;28;20122;-42
2023/09/09 11:49:42;;;;;;;;;;;;;;;;;;5028720;28;19914;-42
2023/09/09 11:52:08;;;;;;;;;;;;;;;;;;5041659;28;19913;-43
2023/09/09 11:54:34;;;;;;;;;;;;;;;;;;5045108;28;20284;-42
2023/09/09 11:57:00;;;;;;;;;;;;;;;;;;5030515;28;19920;-43
2023/09/09 11:59:25;;;;;;;;;;;;;;;;;;5028821;28;19935;-43
2023/09/09 12:01:51;;;;;;;;;;;;;;;;;;5036426;28;19920;-43
2023/09/09 12:04:17;;;;;;;;;;;;;;;;;;5031961;28;19936;-44
2023/09/09 12:06:43;;;;;;;;;;;;;;;;;;5030473;28;20331;-43
2023/09/09 12:09:09;;;;;;;;;;;;;;;;;;5028590;28;19917;-42
2023/09/09 12:11:35;;;;;;;;;;;;;;;;;;5036799;28;20379;-43
2023/09/09 12:14:01;;;;;;;;;;;;;;;;;;5051270;28;19923;-44
2023/09/09 12:16:27;;;;;;;;;;;;;;;;;;5050693;28;20264;-43
2023/09/09 12:18:53;;;;;;;;;;;;;;;;;;5042081;28;21351;-42
2023/09/09 12:21:19;;;;;;;;;;;;;;;;;;5035808;28;19913;-43
2023/09/09 12:23:48;;;;;;;;;;;;;;;;;;5043786;28;19919;-44
2023/09/09 12:26:14;;;;;;;;;;;;;;;;;;5045739;28;19923;-44
2023/09/09 12:28:39;;;;;;;;;;;;;;;;;;5050477;28;19909;-43
2023/09/09 12:31:05;;;;;;;;;;;;;;;;;;5046647;28;19913;-45
2023/09/09 12:33:31;;;;;;;;;;;;;;;;;;5050202;28;19917;-43
2023/09/09 12:35:57;;;;;;;;;;;;;;;;;;5044143;28;19920;-42
2023/09/09 12:38:23;;;;;;;;;;;;;;;;;;5049452;28;20477;-43
2023/09/09 12:40:49;;;;;;;;;;;;;;;;;;5047539;28;19913;-42
2023/09/09 12:43:15;;;;;;;;;;;;;;;;;;5049209;28;19920;-43
2023/09/09 12:45:41;;;;;;;;;;;;;;;;;;5049225;28;19912;-43
2023/09/09 12:48:07;;;;;;;;;;;;;;;;;;5046620;28;20027;-44
2023/09/09 12:50:32;;;;;;;;;;;;;;;;;;5047698;28;19913;-43
2023/09/09 12:52:58;;;;;;;;;;;;;;;;;;5049168;28;19917;-43
2023/09/09 12:55:24;;;;;;;;;;;;;;;;;;5050224;28;19909;-43
2023/09/09 12:57:50;;;;;;;;;;;;;;;;;;5047572;28;19913;-43
2023/09/09 13:00:16;;;;;;;;;;;;;;;;;;5042391;28;19913;-43
2023/09/09 13:02:42;;;;;;;;;;;;;;;;;;5045089;28;19917;-44
2023/09/09 13:05:09;;;;;;;;;;;;;;;;;;5048895;28;20360;-43
2023/09/09 13:07:35;;;;;;;;;;;;;;;;;;5045590;28;20007;-44
2023/09/09 13:10:01;;;;;;;;;;;;;;;;;;5048723;28;19999;-43
2023/09/09 13:12:26;;;;;;;;;;;;;;;;;;5046293;28;19917;-44
2023/09/09 13:14:52;;;;;;;;;;;;;;;;;;5046921;28;20434;-43
2023/09/09 13:17:18;;;;;;;;;;;;;;;;;;5046104;28;20003;-43
2023/09/09 13:19:44;;;;;;;;;;;;;;;;;;5041355;28;19966;-43
2023/09/09 13:22:10;;;;;;;;;;;;;;;;;;5035723;28;19987;-45
2023/09/09 13:24:36;;;;;;;;;;;;;;;;;;5027283;28;19921;-43
2023/09/09 13:27:02;;;;;;;;;;;;;;;;;;5026394;28;20388;-44
2023/09/09 13:29:28;;;;;;;;;;;;;;;;;;5027177;28;20409;-44
2023/09/09 13:31:54;;;;;;;;;;;;;;;;;;5024426;28;20016;-43
2023/09/09 13:34:20;;;;;;;;;;;;;;;;;;5026213;28;19924;-44
2023/09/09 13:36:46;;;;;;;;;;;;;;;;;;5028884;28;19917;-44
2023/09/09 13:39:12;;;;;;;;;;;;;;;;;;5028879;28;19953;-43
2023/09/09 13:41:37;;;;;;;;;;;;;;;;;;5027806;28;20059;-43
2023/09/09 13:44:03;;;;;;;;;;;;;;;;;;5029449;28;19925;-43
2023/09/09 13:46:29;;;;;;;;;;;;;;;;;;5040543;28;19924;-44
2023/09/09 13:48:55;;;;;;;;;;;;;;;;;;5027785;28;20394;-43
2023/09/09 13:51:21;;;;;;;;;;;;;;;;;;5027734;28;19913;-43
2023/09/09 13:53:47;;;;;;;;;;;;;;;;;;5026477;28;19986;-44
2023/09/09 13:56:13;;;;;;;;;;;;;;;;;;5028401;28;19909;-43
2023/09/09 13:58:39;;;;;;;;;;;;;;;;;;5027347;28;19916;-43
2023/09/09 14:01:05;;;;;;;;;;;;;;;;;;5026481;28;19913;-43
2023/09/09 14:03:31;;;;;;;;;;;;;;;;;;5027824;28;20376;-43
2023/09/09 14:05:57;;;;;;;;;;;;;;;;;;5027961;28;20389;-43
2023/09/09 14:08:23;;;;;;;;;;;;;;;;;;5027871;28;20028;-43
2023/09/09 14:10:49;;;;;;;;;;;;;;;;;;5030850;28;20015;-44
2023/09/09 14:13:15;;;;;;;;;;;;;;;;;;5047766;28;20387;-43
2023/09/09 14:15:41;;;;;;;;;;;;;;;;;;5041101;28;19921;-44
2023/09/09 14:18:07;;;;;;;;;;;;;;;;;;5026748;28;19913;-44
2023/09/09 14:20:33;;;;;;;;;;;;;;;;;;5029282;28;19912;-43
2023/09/09 14:22:59;;;;;;;;;;;;;;;;;;5027070;28;19917;-44
2023/09/09 14:25:26;;;;;;;;;;;;;;;;;;5036892;28;20077;-44
2023/09/09 14:27:52;;;;;;;;;;;;;;;;;;5021864;28;19914;-46
2023/09/09 14:30:18;;;;;;;;;;;;;;;;;;5021868;28;20004;-46
2023/09/09 14:32:44;;;;;;;;;;;;;;;;;;5026478;28;20004;-43
2023/09/09 14:35:10;;;;;;;;;;;;;;;;;;5025701;28;20372;-44
2023/09/09 14:37:36;;;;;;;;;;;;;;;;;;5027307;28;19909;-43
2023/09/09 14:40:03;;;;;;;;;;;;;;;;;;5027651;28;19916;-43
2023/09/09 14:42:28;;;;;;;;;;;;;;;;;;5027228;28;20371;-44
2023/09/09 14:44:54;;;;;;;;;;;;;;;;;;5026462;28;19917;-44
2023/09/09 14:47:20;;;;;;;;;;;;;;;;;;5026710;28;20280;-44
2023/09/09 14:49:46;;;;;;;;;;;;;;;;;;5027731;28;19917;-44
2023/09/09 14:52:12;;;;;;;;;;;;;;;;;;5025118;28;19920;-48
2023/09/09 14:54:38;;;;;;;;;;;;;;;;;;5026501;28;20047;-46
2023/09/09 14:57:04;;;;;;;;;;;;;;;;;;5026860;28;20497;-44
2023/09/09 14:59:30;;;;;;;;;;;;;;;;;;5026526;28;19920;-45
2023/09/09 15:01:56;;;;;;;;;;;;;;;;;;5027460;28;20479;-46
2023/09/09 15:04:22;;;;;;;;;;;;;;;;;;5023178;28;19987;-44
2023/09/09 15:06:48;;;;;;;;;;;;;;;;;;5026050;28;20302;-47
2023/09/09 15:09:14;;;;;;;;;;;;;;;;;;5027297;28;20389;-44
2023/09/09 15:11:40;;;;;;;;;;;;;;;;;;5026087;28;19916;-44
2023/09/09 15:14:06;;;;;;;;;;;;;;;;;;5027013;28;19928;-44
2023/09/09 15:16:32;;;;;;;;;;;;;;;;;;5026147;28;19913;-43
2023/09/09 15:18:57;;;;;;;;;;;;;;;;;;5027204;28;20368;-44
2023/09/09 15:21:23;;;;;;;;;;;;;;;;;;5030973;28;19913;-44
2023/09/09 15:23:49;;;;;;;;;;;;;;;;;;5046935;28;19909;-44
2023/09/09 15:26:15;;;;;;;;;;;;;;;;;;5047083;28;19913;-44
2023/09/09 15:28:41;;;;;;;;;;;;;;;;;;5028901;28;20411;-43
2023/09/09 15:31:07;;;;;;;;;;;;;;;;;;5027815;28;19909;-43
2023/09/09 15:33:33;;;;;;;;;;;;;;;;;;5035342;28;19916;-44
2023/09/09 15:35:59;;;;;;;;;;;;;;;;;;5048006;28;19916;-46
2023/09/09 15:38:25;;;;;;;;;;;;;;;;;;5049142;28;19913;-43
2023/09/09 15:40:50;;;;;;;;;;;;;;;;;;5049571;28;19913;-45
2023/09/09 15:43:16;;;;;;;;;;;;;;;;;;5046580;28;19999;-43
2023/09/09 15:45:42;;;;;;;;;;;;;;;;;;5048615;28;19909;-44
2023/09/09 15:48:08;;;;;;;;;;;;;;;;;;5048313;28;19909;-43
2023/09/09 15:50:34;;;;;;;;;;;;;;;;;;5042082;28;19924;-43
2023/09/09 15:53:00;;;;;;;;;;;;;;;;;;5049144;28;20445;-43
2023/09/09 15:55:26;;;;;;;;;;;;;;;;;;5049159;28;19909;-45
2023/09/09 15:57:52;;;;;;;;;;;;;;;;;;5048732;28;19909;-44
2023/09/09 16:00:18;;;;;;;;;;;;;;;;;;5030695;28;19908;-43
2023/09/09 16:02:44;;;;;;;;;;;;;;;;;;5046437;28;19975;-43
2023/09/09 16:05:10;;;;;;;;;;;;;;;;;;5048570;28;20046;-43
2023/09/09 16:07:41;;;;;;;;;;;;;;;;;;5047889;28;19912;-43
2023/09/09 16:10:07;;;;;;;;;;;;;;;;;;5048326;28;20438;-43
2023/09/09 16:12:33;;;;;;;;;;;;;;;;;;5048233;28;20125;-44
2023/09/09 16:14:59;;;;;;;;;;;;;;;;;;5049572;28;20298;-45
2023/09/09 16:17:28;;;;;;;;;;;;;;;;;;5048319;28;19909;-43
2023/09/09 16:19:54;;;;;;;;;;;;;;;;;;5048721;28;20387;-45
2023/09/09 16:22:20;;;;;;;;;;;;;;;;;;5039233;28;19917;-43
2023/09/09 16:24:46;;;;;;;;;;;;;;;;;;5028149;28;20084;-43
2023/09/09 16:27:13;;;;;;;;;;;;;;;;;;5010720;28;19917;-43
2023/09/09 16:29:39;;;;;;;;;;;;;;;;;;5028273;28;19924;-44
2023/09/09 16:32:04;;;;;;;;;;;;;;;;;;5026379;28;20342;-44
2023/09/09 16:34:30;;;;;;;;;;;;;;;;;;5028447;28;19909;-44
2023/09/09 16:36:56;;;;;;;;;;;;;;;;;;5027476;28;20218;-44
2023/09/09 16:39:22;;;;;;;;;;;;;;;;;;5008928;28;19920;-43
2023/09/09 16:41:48;;;;;;;;;;;;;;;;;;5028368;28;19909;-43
2023/09/09 16:44:14;;;;;;;;;;;;;;;;;;5028493;28;19939;-43
2023/09/09 16:46:40;;;;;;;;;;;;;;;;;;5024727;28;20284;-44
2023/09/09 16:49:06;;;;;;;;;;;;;;;;;;5023526;28;20406;-44
2023/09/09 16:51:32;;;;;;;;;;;;;;;;;;5027676;28;20350;-46
2023/09/09 16:53:58;;;;;;;;;;;;;;;;;;5031999;28;19974;-45
2023/09/09 16:56:24;;;;;;;;;;;;;;;;;;5028217;28;19917;-42
2023/09/09 16:58:50;;;;;;;;;;;;;;;;;;5028184;28;19913;-44
2023/09/09 17:01:16;;;;;;;;;;;;;;;;;;5016739;28;19944;-46
2023/09/09 17:03:42;;;;;;;;;;;;;;;;;;5014715;28;19994;-42
2023/09/09 17:06:08;;;;;;;;;;;;;;;;;;5030219;28;19956;-42
2023/09/09 17:08:34;;;;;;;;;;;;;;;;;;5040130;28;20387;-44
2023/09/09 17:10:59;;;;;;;;;;;;;;;;;;5030452;28;19916;-42
2023/09/09 17:13:26;;;;;;;;;;;;;;;;;;5030159;28;20003;-42
2023/09/09 17:15:52;;;;;;;;;;;;;;;;;;5029488;28;19919;-45
2023/09/09 17:18:17;;;;;;;;;;;;;;;;;;5029387;28;19913;-42
2023/09/09 17:20:43;;;;;;;;;;;;;;;;;;5029129;28;19913;-43
2023/09/09 17:23:09;;;;;;;;;;;;;;;;;;5041359;28;19924;-43
2023/09/09 17:25:35;;;;;;;;;;;;;;;;;;5049069;28;19915;-45
2023/09/09 17:28:02;;;;;;;;;;;;;;;;;;5047402;28;19909;-45
2023/09/09 17:30:28;;;;;;;;;;;;;;;;;;5026789;28;20384;-43
2023/09/09 17:32:55;;;;;;;;;;;;;;;;;;5045255;28;20023;-43
2023/09/09 17:35:21;;;;;;;;;;;;;;;;;;5043106;28;20379;-44
2023/09/09 17:37:47;;;;;;;;;;;;;;;;;;5044520;28;19920;-43
2023/09/09 17:40:13;;;;;;;;;;;;;;;;;;5045236;28;20007;-43
2023/09/09 17:42:38;;;;;;;;;;;;;;;;;;5045767;28;20136;-42
2023/09/09 17:45:04;;;;;;;;;;;;;;;;;;5046604;28;19908;-42
2023/09/09 17:47:31;;;;;;;;;;;;;;;;;;5046335;28;20360;-42
2023/09/09 17:49:57;;;;;;;;;;;;;;;;;;5040595;28;19912;-42
2023/09/09 17:52:23;;;;;;;;;;;;;;;;;;5042617;28;19920;-42
2023/09/09 17:54:49;;;;;;;;;;;;;;;;;;5045130;28;19913;-42
2023/09/09 17:57:15;;;;;;;;;;;;;;;;;;5037303;28;20385;-42
2023/09/09 17:59:40;;;;;;;;;;;;;;;;;;5040762;28;19913;-42
2023/09/09 18:02:06;;;;;;;;;;;;;;;;;;5039656;28;19917;-43
2023/09/09 18:04:32;;;;;;;;;;;;;;;;;;5040566;28;19927;-43
2023/09/09 18:06:59;;;;;;;;;;;;;;;;;;5038115;28;19917;-42
2023/09/09 18:09:25;;;;;;;;;;;;;;;;;;5040230;28;19962;-42
2023/09/09 18:11:51;;;;;;;;;;;;;;;;;;5038147;28;19916;-42
2023/09/09 18:14:16;;;;;;;;;;;;;;;;;;5036277;28;19971;-42
2023/09/09 18:16:42;;;;;;;;;;;;;;;;;;5039980;28;19948;-42
2023/09/09 18:19:08;;;;;;;;;;;;;;;;;;5040599;28;19913;-42
2023/09/09 18:21:34;;;;;;;;;;;;;;;;;;5020896;28;19941;-42
2023/09/09 18:24:00;;;;;;;;;;;;;;;;;;5028898;28;19917;-41
2023/09/09 18:26:26;;;;;;;;;;;;;;;;;;5038018;28;20387;-42
2023/09/09 18:28:52;;;;;;;;;;;;;;;;;;5034653;28;20168;-41
2023/09/09 18:31:19;;;;;;;;;;;;;;;;;;5037476;28;20358;-42
2023/09/09 18:33:45;;;;;;;;;;;;;;;;;;5029782;28;20334;-43
2023/09/09 18:36:11;;;;;;;;;;;;;;;;;;5042755;28;19928;-41
2023/09/09 18:38:38;;;;;;;;;;;;;;;;;;5040441;28;19912;-42
2023/09/09 18:41:04;;;;;;;;;;;;;;;;;;5037953;28;19999;-42
2023/09/09 18:43:30;;;;;;;;;;;;;;;;;;5036985;28;20020;-42
2023/09/09 18:45:58;;;;;;;;;;;;;;;;;;5033244;28;19921;-42
2023/09/09 18:48:24;;;;;;;;;;;;;;;;;;5025802;28;20275;-42
2023/09/09 18:50:49;;;;;;;;;;;;;;;;;;5040716;28;19920;-43
2023/09/09 18:53:16;;;;;;;;;;;;;;;;;;5024153;28;19958;-41
2023/09/09 18:55:42;;;;;;;;;;;;;;;;;;5043743;28;20357;-41
2023/09/09 18:58:08;;;;;;;;;;;;;;;;;;5023732;28;20217;-41
2023/09/09 19:00:34;;;;;;;;;;;;;;;;;;5019101;28;19917;-41
2023/09/09 19:03:01;;;;;;;;;;;;;;;;;;5030976;28;20308;-41
2023/09/09 19:05:26;;;;;;;;;;;;;;;;;;5032877;28;19913;-41
2023/09/09 19:07:52;;;;;;;;;;;;;;;;;;5032891;28;19958;-41
2023/09/09 19:10:18;;;;;;;;;;;;;;;;;;5040685;28;20004;-41
2023/09/09 19:12:45;;;;;;;;;;;;;;;;;;5041705;28;20492;-41
2023/09/09 19:15:12;;;;;;;;;;;;;;;;;;5038077;28;19920;-41
2023/09/09 19:17:38;;;;;;;;;;;;;;;;;;5042736;28;19912;-40
2023/09/09 19:20:04;;;;;;;;;;;;;;;;;;5029347;28;20495;-41
2023/09/09 19:22:30;;;;;;;;;;;;;;;;;;5039839;28;19979;-41
2023/09/09 19:24:56;;;;;;;;;;;;;;;;;;5029184;28;19909;-42
2023/09/09 19:27:22;;;;;;;;;;;;;;;;;;5030187;28;19913;-42
2023/09/09 19:29:49;;;;;;;;;;;;;;;;;;5029977;28;20366;-41
2023/09/09 19:32:15;;;;;;;;;;;;;;;;;;5013119;28;20014;-42
2023/09/09 19:34:41;;;;;;;;;;;;;;;;;;5034787;28;20336;-42
2023/09/09 19:37:07;;;;;;;;;;;;;;;;;;5023832;28;19913;-41
2023/09/09 19:39:36;;;;;;;;;;;;;;;;;;5024994;28;19941;-41
2023/09/09 19:42:02;;;;;;;;;;;;;;;;;;5034236;28;20445;-41
2023/09/09 19:44:28;;;;;;;;;;;;;;;;;;5047226;28;19924;-41
2023/09/09 19:46:54;;;;;;;;;;;;;;;;;;5049331;28;19917;-41
2023/09/09 19:49:20;;;;;;;;;;;;;;;;;;5035756;28;19970;-40
2023/09/09 19:51:46;;;;;;;;;;;;;;;;;;5049317;28;19928;-40
2023/09/09 19:54:12;;;;;;;;;;;;;;;;;;5037457;28;19949;-41
2023/09/09 19:56:38;;;;;;;;;;;;;;;;;;5024556;28;19922;-41
2023/09/09 19:59:04;;;;;;;;;;;;;;;;;;5026931;28;19917;-41
2023/09/09 20:01:29;;;;;;;;;;;;;;;;;;5024809;28;19913;-40
2023/09/09 20:03:55;;;;;;;;;;;;;;;;;;5028663;28;19917;-40
2023/09/09 20:06:21;;;;;;;;;;;;;;;;;;5023767;28;19968;-40
2023/09/09 20:08:47;;;;;;;;;;;;;;;;;;5040933;28;19913;-40
2023/09/09 20:11:13;;;;;;;;;;;;;;;;;;5034661;28;20383;-40
2023/09/09 20:13:39;;;;;;;;;;;;;;;;;;5027203;28;20025;-41
2023/09/09 20:16:05;;;;;;;;;;;;;;;;;;5032064;28;19963;-41
2023/09/09 20:18:31;;;;;;;;;;;;;;;;;;5026337;28;19913;-40
2023/09/09 20:20:59;;;;;;;;;;;;;;;;;;5029263;28;19913;-41
2023/09/09 20:23:25;;;;;;;;;;;;;;;;;;5037652;28;19917;-41
2023/09/09 20:25:51;;;;;;;;;;;;;;;;;;5026223;28;19920;-42
2023/09/09 20:28:17;;;;;;;;;;;;;;;;;;5025766;28;20392;-41
2023/09/09 20:30:43;;;;;;;;;;;;;;;;;;5038560;28;19992;-41
2023/09/09 20:33:08;;;;;;;;;;;;;;;;;;5029196;28;20287;-41
2023/09/09 20:35:35;;;;;;;;;;;;;;;;;;5026334;28;19914;-40
2023/09/09 20:38:02;;;;;;;;;;;;;;;;;;5025509;28;19936;-40
2023/09/09 20:40:28;;;;;;;;;;;;;;;;;;5025098;28;20492;-41
2023/09/09 20:42:54;;;;;;;;;;;;;;;;;;5028121;28;19964;-40
2023/09/09 20:45:20;;;;;;;;;;;;;;;;;;5029187;28;20074;-40
2023/09/09 20:47:46;;;;;;;;;;;;;;;;;;5034119;28;19917;-40
2023/09/09 20:50:12;;;;;;;;;;;;;;;;;;5027098;28;19919;-40
2023/09/09 20:52:38;;;;;;;;;;;;;;;;;;5045185;28;19943;-41
2023/09/09 20:55:04;;;;;;;;;;;;;;;;;;5046276;28;20007;-40
2023/09/09 20:57:29;;;;;;;;;;;;;;;;;;5026945;28;19921;-40
2023/09/09 20:59:55;;;;;;;;;;;;;;;;;;5033318;28;19913;-40
2023/09/09 21:02:21;;;;;;;;;;;;;;;;;;5036775;28;19917;-40
2023/09/09 21:04:47;;;;;;;;;;;;;;;;;;5023430;28;19914;-40
2023/09/09 21:07:13;;;;;;;;;;;;;;;;;;5025157;28;19921;-40
2023/09/09 21:09:39;;;;;;;;;;;;;;;;;;5028226;28;19917;-40
2023/09/09 21:12:05;;;;;;;;;;;;;;;;;;5027319;28;19909;-40
2023/09/09 21:14:31;;;;;;;;;;;;;;;;;;5029647;28;19929;-44
2023/09/09 21:16:57;;;;;;;;;;;;;;;;;;5024756;28;19971;-42
2023/09/09 21:19:22;;;;;;;;;;;;;;;;;;5035498;28;19913;-43
2023/09/09 21:21:49;;;;;;;;;;;;;;;;;;5034001;28;19917;-43
2023/09/09 21:24:14;;;;;;;;;;;;;;;;;;5043291;28;19916;-42
2023/09/09 21:26:41;;;;;;;;;;;;;;;;;;5045775;28;19909;-43
2023/09/09 21:29:07;;;;;;;;;;;;;;;;;;5045933;28;19999;-43
2023/09/09 21:31:33;;;;;;;;;;;;;;;;;;5044602;28;20050;-43
2023/09/09 21:33:59;;;;;;;;;;;;;;;;;;5043156;28;19917;-42
2023/09/09 21:36:25;;;;;;;;;;;;;;;;;;5041641;28;19909;-43
2023/09/09 21:38:51;;;;;;;;;;;;;;;;;;5047078;28;20055;-42
2023/09/09 21:41:17;;;;;;;;;;;;;;;;;;5043223;28;19909;-42
2023/09/09 21:43:43;;;;;;;;;;;;;;;;;;5047641;28;19913;-43
2023/09/09 21:46:09;;;;;;;;;;;;;;;;;;5034435;28;19909;-42
2023/09/09 21:48:34;;;;;;;;;;;;;;;;;;5025523;28;19921;-44
2023/09/09 21:51:00;;;;;;;;;;;;;;;;;;5027286;28;19959;-42
2023/09/09 21:53:27;;;;;;;;;;;;;;;;;;5044116;28;19936;-45
2023/09/09 21:55:53;;;;;;;;;;;;;;;;;;5043682;28;19916;-44